createdAt,value
2023-03-31T00:01:08.080Z,10.28
2023-03-31T00:03:38.942Z,10.49
2023-03-31T00:06:06.332Z,10.72
2023-03-31T00:08:38.111Z,10.72
2023-03-31T00:11:10.087Z,10.62
2023-03-31T00:13:37.159Z,10.69
2023-03-31T00:16:07.950Z,10.90
2023-03-31T00:18:35.925Z,10.59
2023-03-31T00:21:25.110Z,10.44
2023-03-31T00:23:58.436Z,10.51
2023-03-31T00:26:26.631Z,10.34
2023-03-31T00:28:54.145Z,10.09
2023-03-31T00:31:22.256Z,10.35
2023-03-31T00:33:50.572Z,10.41
2023-03-31T00:36:43.823Z,10.53
2023-03-31T00:39:11.288Z,10.58
2023-03-31T00:41:40.601Z,10.80
2023-03-31T00:44:23.303Z,10.68
2023-03-31T00:47:18.048Z,10.28
2023-03-31T00:49:53.388Z,10.53
2023-03-31T00:52:23.912Z,10.32
2023-03-31T00:55:05.731Z,10.61
2023-03-31T00:57:39.370Z,10.43
2023-03-31T01:00:19.491Z,10.30
2023-03-31T01:02:56.255Z,10.30
2023-03-31T01:05:27.721Z,10.60
2023-03-31T01:07:56.312Z,10.57
2023-03-31T01:10:23.388Z,10.91
2023-03-31T01:12:54.489Z,10.74
2023-03-31T01:15:22.253Z,10.30
2023-03-31T01:17:53.531Z,10.45
2023-03-31T01:20:33.126Z,10.54
2023-03-31T01:23:32.460Z,10.53
2023-03-31T01:26:27.898Z,11.02
2023-03-31T01:29:01.623Z,10.88
2023-03-31T01:32:02.462Z,10.84
2023-03-31T01:34:54.201Z,10.53
2023-03-31T01:37:47.915Z,10.78
2023-03-31T01:40:14.638Z,10.45
2023-03-31T01:43:05.148Z,10.62
2023-03-31T01:45:40.872Z,10.80
2023-03-31T01:48:18.989Z,10.73
2023-03-31T01:50:57.120Z,10.99
2023-03-31T01:53:31.052Z,10.40
2023-03-31T01:56:18.358Z,10.57
2023-03-31T01:58:55.497Z,10.96
2023-03-31T02:01:31.826Z,10.74
2023-03-31T02:04:09.870Z,10.67
2023-03-31T02:06:41.039Z,10.78
2023-03-31T02:09:16.778Z,10.98
2023-03-31T02:11:45.708Z,10.81
2023-03-31T02:14:19.228Z,10.80
2023-03-31T02:16:50.350Z,11.01
2023-03-31T02:19:20.946Z,11.31
2023-03-31T02:21:49.948Z,10.83
2023-03-31T02:24:20.096Z,10.96
2023-03-31T02:27:01.315Z,11.02
2023-03-31T02:29:28.498Z,10.66
2023-03-31T02:32:19.895Z,10.98
2023-03-31T02:34:47.096Z,10.83
2023-03-31T02:37:14.642Z,10.86
2023-03-31T02:39:46.282Z,10.86
2023-03-31T02:42:14.344Z,10.37
2023-03-31T02:44:41.162Z,10.50
2023-03-31T02:47:11.657Z,10.47
2023-03-31T02:49:42.709Z,10.28
2023-03-31T02:52:12.881Z,10.55
2023-03-31T02:55:02.188Z,10.24
2023-03-31T02:57:50.827Z,9.88
2023-03-31T03:00:53.393Z,9.89
2023-03-31T03:03:32.497Z,10.12
2023-03-31T03:06:27.941Z,9.91
2023-03-31T03:09:19.295Z,10.01
2023-03-31T03:11:54.620Z,9.80
2023-03-31T03:14:36.310Z,9.63
2023-03-31T03:17:10.333Z,9.20
2023-03-31T03:19:37.867Z,9.88
2023-03-31T03:22:06.391Z,10.06
2023-03-31T03:24:36.678Z,10.30
2023-03-31T03:27:04.162Z,10.44
2023-03-31T03:29:31.011Z,10.23
2023-03-31T03:31:58.160Z,10.10
2023-03-31T03:34:26.002Z,10.27
2023-03-31T03:36:52.766Z,10.12
2023-03-31T03:39:19.471Z,10.10
2023-03-31T03:41:47.230Z,10.38
2023-03-31T03:44:14.237Z,10.03
2023-03-31T03:46:41.089Z,10.27
2023-03-31T03:49:08.201Z,10.20
2023-03-31T03:51:35.858Z,10.00
2023-03-31T03:54:05.993Z,10.22
2023-03-31T03:56:33.345Z,9.88
2023-03-31T03:59:00.603Z,10.05
2023-03-31T04:01:27.440Z,10.21
2023-03-31T04:03:54.431Z,10.00
2023-03-31T04:06:21.424Z,9.64
2023-03-31T04:08:56.104Z,9.48
2023-03-31T04:11:23.378Z,9.67
2023-03-31T04:13:50.334Z,9.19
2023-03-31T04:16:20.272Z,9.47
2023-03-31T04:18:49.004Z,9.60
2023-03-31T04:21:24.039Z,9.40
2023-03-31T04:24:04.734Z,9.81
2023-03-31T04:26:44.797Z,9.64
2023-03-31T04:29:13.283Z,9.46
2023-03-31T04:31:43.171Z,9.48
2023-03-31T04:34:15.485Z,9.67
2023-03-31T04:36:47.897Z,9.67
2023-03-31T04:39:27.219Z,9.16
2023-03-31T04:41:54.527Z,9.39
2023-03-31T04:44:21.325Z,9.74
2023-03-31T04:46:48.188Z,9.52
2023-03-31T04:49:15.483Z,9.21
2023-03-31T04:51:42.273Z,9.41
2023-03-31T04:54:09.513Z,9.66
2023-03-31T04:56:36.362Z,9.39
2023-03-31T04:59:04.335Z,9.11
2023-03-31T05:01:36.750Z,9.19
2023-03-31T05:04:11.783Z,10.75
2023-03-31T05:07:21.544Z,11.42
2023-03-31T05:09:57.866Z,11.52
2023-03-31T05:12:26.000Z,9.88
2023-03-31T05:14:57.226Z,9.86
2023-03-31T05:17:25.991Z,9.67
2023-03-31T05:19:56.122Z,9.64
2023-03-31T05:22:25.888Z,9.55
2023-03-31T05:24:54.326Z,9.40
2023-03-31T05:27:35.206Z,8.89
2023-03-31T05:30:10.828Z,9.62
2023-03-31T05:32:37.781Z,9.78
2023-03-31T05:35:05.528Z,9.49
2023-03-31T05:37:32.878Z,9.90
2023-03-31T05:40:01.134Z,9.87
2023-03-31T05:42:28.338Z,9.75
2023-03-31T05:44:55.382Z,10.26
2023-03-31T05:47:23.639Z,10.89
2023-03-31T05:49:53.548Z,10.96
2023-03-31T05:52:20.678Z,11.14
2023-03-31T05:54:52.719Z,11.06
2023-03-31T05:57:29.553Z,11.57
2023-03-31T06:00:02.625Z,11.84
2023-03-31T06:02:34.061Z,11.22
2023-03-31T06:05:05.086Z,12.23
2023-03-31T06:07:32.226Z,12.31
2023-03-31T06:10:07.752Z,12.93
2023-03-31T06:12:40.233Z,12.55
2023-03-31T06:17:56.661Z,14.86
2023-03-31T06:20:28.210Z,15.26
2023-03-31T06:22:55.975Z,15.02
2023-03-31T06:25:25.583Z,15.41
2023-03-31T06:27:53.511Z,14.29
2023-03-31T06:30:20.550Z,13.66
2023-03-31T06:32:47.929Z,14.95
2023-03-31T06:35:15.608Z,14.38
2023-03-31T06:37:43.065Z,14.33
2023-03-31T06:40:12.549Z,13.75
2023-03-31T06:42:40.387Z,14.60
2023-03-31T06:45:10.967Z,14.10
2023-03-31T06:47:42.356Z,13.50
2023-03-31T06:50:10.220Z,14.13
2023-03-31T06:52:37.218Z,15.06
2023-03-31T06:55:04.731Z,14.99
2023-03-31T06:57:34.434Z,15.17
2023-03-31T07:00:02.202Z,15.65
2023-03-31T07:02:29.455Z,15.82
2023-03-31T07:05:02.670Z,16.32
2023-03-31T07:07:33.412Z,15.18
2023-03-31T07:10:00.811Z,15.65
2023-03-31T07:12:27.755Z,16.18
2023-03-31T07:14:54.998Z,15.72
2023-03-31T07:17:26.806Z,15.53
2023-03-31T07:19:56.316Z,15.56
2023-03-31T07:22:23.376Z,15.43
2023-03-31T07:24:50.227Z,16.62
2023-03-31T07:27:17.449Z,17.14
2023-03-31T07:30:03.922Z,16.35
2023-03-31T07:35:16.047Z,16.39
2023-03-31T07:37:51.101Z,16.43
2023-03-31T07:40:27.263Z,16.71
2023-03-31T07:42:55.566Z,16.28
2023-03-31T07:45:26.302Z,16.64
2023-03-31T07:47:54.051Z,16.46
2023-03-31T07:50:29.466Z,16.70
2023-03-31T07:53:04.044Z,17.76
2023-03-31T07:55:33.342Z,17.92
2023-03-31T07:58:00.167Z,17.59
2023-03-31T08:00:27.469Z,17.00
2023-03-31T08:03:22.300Z,16.37
2023-03-31T08:05:52.696Z,16.84
2023-03-31T08:08:24.946Z,17.09
2023-03-31T08:10:52.456Z,17.19
2023-03-31T08:13:19.622Z,17.21
2023-03-31T08:15:47.125Z,16.79
2023-03-31T08:18:14.463Z,17.45
2023-03-31T08:20:41.312Z,17.80
2023-03-31T08:23:12.103Z,18.16
2023-03-31T08:25:39.175Z,18.01
2023-03-31T08:28:17.742Z,17.78
2023-03-31T08:30:47.970Z,17.65
2023-03-31T08:33:23.644Z,18.02
2023-03-31T08:35:57.563Z,18.00
2023-03-31T08:38:28.929Z,17.92
2023-03-31T08:41:06.092Z,17.83
2023-03-31T08:43:39.570Z,18.52
2023-03-31T08:46:25.604Z,18.74
2023-03-31T08:48:56.413Z,18.46
2023-03-31T08:51:28.656Z,17.64
2023-03-31T08:54:03.999Z,17.41
2023-03-31T08:56:42.969Z,18.04
2023-03-31T08:59:39.626Z,17.58
2023-03-31T09:02:33.009Z,17.94
2023-03-31T09:05:19.115Z,18.27
2023-03-31T09:08:43.475Z,17.44
2023-03-31T09:11:16.112Z,19.05
2023-03-31T09:14:16.823Z,18.81
2023-03-31T09:17:21.967Z,18.58
2023-03-31T09:19:57.066Z,17.84
2023-03-31T09:22:31.706Z,18.68
2023-03-31T09:25:10.803Z,17.86
2023-03-31T09:27:45.504Z,18.68
2023-03-31T09:30:23.580Z,19.27
2023-03-31T09:32:57.887Z,19.69
2023-03-31T09:35:27.563Z,18.95
2023-03-31T09:40:57.817Z,18.58
2023-03-31T09:43:35.247Z,19.42
2023-03-31T09:46:55.369Z,18.55
2023-03-31T09:49:26.491Z,19.67
2023-03-31T09:52:19.849Z,19.70
2023-03-31T09:55:38.414Z,19.82
2023-03-31T09:58:11.686Z,19.85
2023-03-31T10:00:53.334Z,20.05
2023-03-31T10:03:23.621Z,19.68
2023-03-31T10:05:53.123Z,20.04
2023-03-31T10:08:30.762Z,20.23
2023-03-31T10:11:09.663Z,20.00
2023-03-31T10:13:50.046Z,19.98
2023-03-31T10:16:32.640Z,19.92
2023-03-31T10:19:38.038Z,20.15
2023-03-31T10:22:20.884Z,20.23
2023-03-31T10:24:55.253Z,20.50
2023-03-31T10:27:30.502Z,20.58
2023-03-31T10:30:04.203Z,20.38
2023-03-31T10:32:33.330Z,20.65
2023-03-31T10:35:07.445Z,21.11
2023-03-31T10:37:37.957Z,21.22
2023-03-31T10:40:25.180Z,21.25
2023-03-31T10:43:03.583Z,21.21
2023-03-31T10:45:43.838Z,21.42
2023-03-31T10:48:31.583Z,21.34
2023-03-31T10:51:28.295Z,21.08
2023-03-31T10:54:00.702Z,21.50
2023-03-31T10:56:37.839Z,21.58
2023-03-31T10:59:32.631Z,21.50
2023-03-31T11:02:05.448Z,20.66
2023-03-31T11:04:38.804Z,20.75
2023-03-31T11:11:19.706Z,19.89
2023-03-31T11:13:59.481Z,20.34
2023-03-31T11:16:44.459Z,20.07
2023-03-31T11:19:33.318Z,20.29
2023-03-31T11:22:42.298Z,20.34
2023-03-31T11:25:49.529Z,20.56
2023-03-31T11:29:41.380Z,20.47
2023-03-31T11:32:46.595Z,20.92
2023-03-31T11:35:44.300Z,20.89
2023-03-31T11:38:44.759Z,20.60
2023-03-31T11:41:21.197Z,20.75
2023-03-31T11:43:58.626Z,20.81
2023-03-31T11:46:52.965Z,20.68
2023-03-31T11:53:22.785Z,20.99
2023-03-31T11:55:54.157Z,21.47
2023-03-31T11:58:45.396Z,21.30
2023-03-31T12:01:28.537Z,20.99
2023-03-31T12:04:14.282Z,20.64
2023-03-31T12:06:43.270Z,20.47
2023-03-31T12:09:20.815Z,21.04
2023-03-31T12:12:03.643Z,21.11
2023-03-31T12:14:37.224Z,21.19
2023-03-31T12:17:23.226Z,21.00
2023-03-31T12:20:07.677Z,21.47
2023-03-31T12:22:44.520Z,21.89
2023-03-31T12:25:16.906Z,21.56
2023-03-31T12:27:54.800Z,21.48
2023-03-31T12:30:48.846Z,21.22
2023-03-31T12:33:41.848Z,21.13
2023-03-31T12:36:40.100Z,21.16
2023-03-31T12:39:30.564Z,21.45
2023-03-31T12:42:21.822Z,21.59
2023-03-31T12:45:29.550Z,21.71
2023-03-31T12:48:29.367Z,21.07
2023-03-31T12:50:56.295Z,20.96
2023-03-31T12:53:38.911Z,21.09
2023-03-31T12:56:06.725Z,20.94
2023-03-31T12:58:43.779Z,20.81
2023-03-31T13:01:26.128Z,20.77
2023-03-31T13:04:24.534Z,20.52
2023-03-31T13:06:56.278Z,20.29
2023-03-31T13:09:40.399Z,20.36
2023-03-31T13:12:09.729Z,20.63
2023-03-31T13:14:42.656Z,20.72
2023-03-31T13:17:23.986Z,20.73
2023-03-31T13:19:56.892Z,20.63
2023-03-31T13:22:34.811Z,20.58
2023-03-31T13:25:43.031Z,21.16
2023-03-31T13:28:19.301Z,21.50
2023-03-31T13:30:52.055Z,20.84
2023-03-31T13:33:18.884Z,20.82
2023-03-31T13:35:50.432Z,20.67
2023-03-31T13:38:52.434Z,19.90
2023-03-31T13:50:14.877Z,20.50
2023-03-31T13:52:53.375Z,21.10
2023-03-31T13:55:55.614Z,21.13
2023-03-31T13:58:47.470Z,20.80
2023-03-31T14:04:39.599Z,21.08
2023-03-31T14:07:47.997Z,21.52
2023-03-31T14:10:45.761Z,21.40
2023-03-31T14:13:17.723Z,21.60
2023-03-31T14:15:54.135Z,21.87
2023-03-31T14:18:31.980Z,21.64
2023-03-31T14:21:22.308Z,21.49
2023-03-31T14:24:01.503Z,21.20
2023-03-31T14:27:19.144Z,21.36
2023-03-31T14:30:13.214Z,21.61
2023-03-31T14:33:14.457Z,21.68
2023-03-31T14:35:56.127Z,21.61
2023-03-31T14:38:24.384Z,21.62
2023-03-31T14:40:57.758Z,21.99
2023-03-31T14:43:29.172Z,22.08
2023-03-31T14:46:01.173Z,22.02
2023-03-31T14:48:45.685Z,21.85
2023-03-31T14:51:16.197Z,21.98
2023-03-31T14:53:47.070Z,21.77
2023-03-31T14:56:20.502Z,21.87
2023-03-31T14:58:51.125Z,21.91
2023-03-31T15:01:28.645Z,21.86
2023-03-31T15:03:59.485Z,21.67
2023-03-31T15:06:26.942Z,21.75
2023-03-31T15:08:58.337Z,21.96
2023-03-31T15:11:29.050Z,22.01
2023-03-31T15:14:05.162Z,21.82
2023-03-31T15:16:52.146Z,21.88
2023-03-31T15:19:31.814Z,21.63
2023-03-31T15:22:02.386Z,21.67
2023-03-31T15:24:30.241Z,21.96
2023-03-31T15:27:10.950Z,21.73
2023-03-31T15:29:43.349Z,21.51
2023-03-31T15:32:23.135Z,21.66
2023-03-31T15:38:10.808Z,21.14
2023-03-31T15:40:46.439Z,21.32
2023-03-31T15:43:33.139Z,21.49
2023-03-31T15:46:01.509Z,21.33
2023-03-31T15:48:34.702Z,21.39
2023-03-31T15:51:13.545Z,21.18
2023-03-31T15:53:52.871Z,21.19
2023-03-31T15:56:33.519Z,21.27
2023-03-31T15:59:05.212Z,21.29
2023-03-31T16:01:44.236Z,21.04
2023-03-31T16:04:33.614Z,21.03
2023-03-31T16:08:09.641Z,20.98
2023-03-31T16:10:37.003Z,20.67
2023-03-31T16:13:27.315Z,20.63
2023-03-31T16:15:56.662Z,20.57
2023-03-31T16:18:36.331Z,20.27
2023-03-31T16:21:07.847Z,20.19
2023-03-31T16:24:40.340Z,19.94
2023-03-31T16:27:22.843Z,19.71
2023-03-31T16:29:49.998Z,19.67
2023-03-31T16:38:57.944Z,19.31
2023-03-31T16:51:02.185Z,19.23
2023-03-31T16:53:42.202Z,18.57
2023-03-31T16:56:12.911Z,18.43
2023-03-31T17:10:16.401Z,17.66
2023-03-31T17:12:43.586Z,17.74
2023-03-31T17:15:11.532Z,17.65
2023-03-31T17:17:39.802Z,17.73
2023-03-31T17:20:08.789Z,17.64
2023-03-31T17:22:36.603Z,17.49
2023-03-31T17:25:04.832Z,17.30
2023-03-31T17:27:32.862Z,17.35
2023-03-31T17:29:59.681Z,17.52
2023-03-31T17:32:27.804Z,17.07
2023-03-31T17:34:54.809Z,16.92
2023-03-31T17:37:21.712Z,17.07
2023-03-31T17:39:48.658Z,16.85
2023-03-31T17:42:17.812Z,16.88
2023-03-31T17:44:46.837Z,16.84
2023-03-31T17:47:20.911Z,16.64
2023-03-31T17:49:49.069Z,16.65
2023-03-31T17:52:16.866Z,16.59
2023-03-31T17:54:43.648Z,16.81
2023-03-31T17:57:13.368Z,16.98
2023-03-31T17:59:40.686Z,16.75
2023-03-31T18:02:08.320Z,16.43
2023-03-31T18:04:37.113Z,16.69
2023-03-31T18:07:04.290Z,16.41
2023-03-31T18:09:31.513Z,16.66
2023-03-31T18:12:01.967Z,16.80
2023-03-31T18:14:28.808Z,16.62
2023-03-31T18:16:56.630Z,16.54
2023-03-31T18:19:24.846Z,16.72
2023-03-31T18:21:51.787Z,16.15
2023-03-31T18:24:20.338Z,16.28
2023-03-31T18:26:47.586Z,16.14
2023-03-31T18:29:14.763Z,16.29
2023-03-31T18:31:42.030Z,16.07
2023-03-31T18:34:09.458Z,15.55
2023-03-31T18:36:36.365Z,15.52
2023-03-31T18:39:04.449Z,15.56
2023-03-31T18:41:48.853Z,15.50
2023-03-31T18:44:18.355Z,15.42
2023-03-31T18:46:46.439Z,15.28
2023-03-31T18:52:06.789Z,15.42
2023-03-31T18:54:40.527Z,15.45
2023-03-31T18:57:13.219Z,15.68
2023-03-31T18:59:40.319Z,15.49
2023-03-31T19:02:07.716Z,15.43
2023-03-31T19:04:34.834Z,15.39
2023-03-31T19:07:02.075Z,15.18
2023-03-31T19:09:30.256Z,15.22
2023-03-31T19:12:12.304Z,15.22
2023-03-31T19:14:46.174Z,15.15
2023-03-31T19:17:13.508Z,15.17
2023-03-31T19:19:40.581Z,15.13
2023-03-31T19:24:59.964Z,14.87
2023-03-31T19:27:28.435Z,14.97
2023-03-31T19:30:00.020Z,14.80
2023-03-31T19:32:27.550Z,14.81
2023-03-31T19:34:55.298Z,14.82
2023-03-31T19:37:22.495Z,14.77
2023-03-31T19:39:49.496Z,15.00
2023-03-31T19:42:22.736Z,14.85
2023-03-31T19:44:49.943Z,14.82
2023-03-31T19:47:16.818Z,14.63
2023-03-31T19:49:43.928Z,14.90
2023-03-31T19:52:11.326Z,14.71
2023-03-31T19:54:38.124Z,14.66
2023-03-31T19:57:17.302Z,14.93
2023-03-31T19:59:44.806Z,14.97
2023-03-31T20:04:41.995Z,14.85
2023-03-31T20:07:16.189Z,14.60
2023-03-31T20:09:43.685Z,14.75
2023-03-31T20:12:11.109Z,14.56
2023-03-31T20:14:41.016Z,14.52
2023-03-31T20:17:10.831Z,14.27
2023-03-31T20:19:47.886Z,14.41
2023-03-31T20:22:15.296Z,14.25
2023-03-31T20:24:47.848Z,14.57
2023-03-31T20:27:14.818Z,14.46
2023-03-31T20:29:42.033Z,14.65
2023-03-31T20:32:12.044Z,14.52
2023-03-31T20:34:39.376Z,14.72
2023-03-31T20:37:06.419Z,14.98
2023-03-31T20:39:33.560Z,14.78
2023-03-31T20:42:00.673Z,14.75
2023-03-31T20:44:28.659Z,14.48
2023-03-31T20:46:56.719Z,14.67
2023-03-31T20:49:23.746Z,14.67
2023-03-31T20:51:51.273Z,14.33
2023-03-31T20:54:18.508Z,14.63
2023-03-31T20:57:08.863Z,14.16
2023-03-31T20:59:38.812Z,14.08
2023-03-31T21:02:06.364Z,13.93
2023-03-31T21:04:33.538Z,14.04
2023-03-31T21:07:01.255Z,14.01
2023-03-31T21:09:28.631Z,14.27
2023-03-31T21:11:55.846Z,14.12
2023-03-31T21:14:25.510Z,14.32
2023-03-31T21:16:55.067Z,13.92
2023-03-31T21:19:22.274Z,14.22
2023-03-31T21:21:49.318Z,14.18
2023-03-31T21:24:16.382Z,14.45
2023-03-31T21:26:53.142Z,14.43
2023-03-31T21:29:42.833Z,14.39
2023-03-31T21:32:15.312Z,13.92
2023-03-31T21:34:45.924Z,14.23
2023-03-31T21:37:19.995Z,13.72
2023-03-31T21:39:47.344Z,13.85
2023-03-31T21:42:14.658Z,13.78
2023-03-31T21:45:08.639Z,13.92
2023-03-31T21:47:36.646Z,14.18
2023-03-31T21:50:03.501Z,14.14
2023-03-31T21:52:30.334Z,14.35
2023-03-31T21:54:58.216Z,14.16
2023-03-31T21:57:25.245Z,14.13
2023-03-31T21:59:54.812Z,14.00
2023-03-31T22:02:23.562Z,14.02
2023-03-31T22:04:50.986Z,13.64
2023-03-31T22:07:18.276Z,14.14
2023-03-31T22:09:48.813Z,14.35
2023-03-31T22:12:15.745Z,14.15
2023-03-31T22:14:42.670Z,14.00
2023-03-31T22:17:10.268Z,14.07
2023-03-31T22:19:37.612Z,14.26
2023-03-31T22:22:04.828Z,14.15
2023-03-31T22:24:32.108Z,13.90
2023-03-31T22:26:59.139Z,14.02
2023-03-31T22:29:25.864Z,13.77
2023-03-31T22:31:53.126Z,13.96
2023-03-31T22:34:20.605Z,14.08
2023-03-31T22:36:47.616Z,14.17
2023-03-31T22:39:15.716Z,14.08
2023-03-31T22:41:43.502Z,14.29
2023-03-31T22:44:10.613Z,14.44
2023-03-31T22:46:39.374Z,14.30
2023-03-31T22:49:06.671Z,14.36
2023-03-31T22:51:34.788Z,14.58
2023-03-31T22:54:01.982Z,14.52
2023-03-31T22:56:29.087Z,14.58
2023-03-31T22:58:57.963Z,14.39
2023-03-31T23:01:25.129Z,14.24
2023-03-31T23:03:52.771Z,14.50
2023-03-31T23:06:19.498Z,14.75
2023-03-31T23:08:49.053Z,14.28
2023-03-31T23:11:18.907Z,14.66
2023-03-31T23:13:46.296Z,14.95
2023-03-31T23:16:19.806Z,14.95
2023-03-31T23:18:48.621Z,14.81
2023-03-31T23:25:41.601Z,14.51
2023-03-31T23:28:08.820Z,14.08
2023-03-31T23:30:36.258Z,14.76
2023-03-31T23:33:03.265Z,14.44
2023-03-31T23:35:30.368Z,14.45
2023-03-31T23:37:57.694Z,14.63
2023-03-31T23:40:24.917Z,14.46
2023-03-31T23:42:51.847Z,14.30
2023-03-31T23:45:19.357Z,14.30
2023-03-31T23:47:46.566Z,14.31
2023-03-31T23:50:13.924Z,14.12
2023-03-31T23:52:41.080Z,14.63
2023-03-31T23:55:08.356Z,14.67
2023-03-31T23:57:35.447Z,14.81
